Airfield :
LOGIN :

Register | Disclaimer

   EN    FR    IT 

 










Legend :    VFR   Marginal VFR   IFR   Intensive IFR   Very Intensive IFR
Visi :
Ceiling :
>= 8 km
>= 3000ft
5 to 8 km
1000 to 3000 ft
1500m to 5 km
500 to 1000 ft
800 to 1500m
200 to 500 ft
< 800m
< 200 ft
Symbols :   Thunderstorms  Fog  Heavy snow  Heavy precipitations  Wind > 20 kt
SIGMETs :     Misc.  Thunderstorms  Icing  Turbulence  Mountain Waves  Volcanic Ashes







- Airport Elevation : 1 ft
- Download approach charts


EGCK - Caernarfon

CURRENT METAR :
  • 152120Z AUTO VRB01KT 9999 OVC036/// 11/09 Q1014

EXPIRED METARs :
  • 152050Z AUTO 02003KT 9999 OVC037/// 11/09 Q1014
  • 152020Z AUTO VRB01KT 9999 OVC038/// 12/08 Q1014
  • 151950Z AUTO VRB03KT 9999 FEW033/// OVC039/// 12/08 Q1014
  • 151920Z AUTO VRB01KT 9999 FEW028/// OVC037/// 11/08 Q1014
  • 151850Z AUTO VRB01KT 9999 OVC036/// 10/08 Q1014
  • 151820Z AUTO VRB02KT 9999 OVC040/// 10/08 Q1014

TAF TAF EGCK
Valid from the 15 at 21:00 until the 16 at 06:00 UTC


151950Z 1521/1606 05005KT 9999 FEW020
BECMG 1521/1523 12010KT
TEMPO 1522/1603 6000 -RA BKN010
BECMG 1523/1602 19005KT
TEMPO 1603/1606 3000 -RADZ BKN004
No reported NOTAMs for that airfield.



MET'MAP, your aeronautical weather chart ! - Copyright ORBIFLY December 2007 - Disclaimer

ORBIFLY MET'MAP TEAM :

Programming & Development : Alexandra Zaïnal
Concept & Development : Baudouin d'Aumeries
Co-Development & Prog : Marc-Olivier Méhu
Technical & hardware support : Manuel Goepfert

Contact : metmap@orbifly.com




SOURCES & CREDITS :

   NOAA